Time;durP1;ratioP1;P1;durP2;ratioP2;P2;SDS_P1;SDS_P2;PMS_P1;PMS_P2;Temp;Humidity;BMP_temperature;BMP_pressure;BME280_temperature;BME280_humidity;BME280_pressure;Samples;Min_cycle;Max_cycle;Signal;HPM_P1;HPM_P2
2023/09/20 00:02:12;;;;;;;2.20;2.10;;;;;;;;;;6235354;23;20536;-67
2023/09/20 00:04:41;;;;;;;3.33;2.20;;;;;;;;;;6210599;23;20559;-67
2023/09/20 00:07:10;;;;;;;3.30;3.00;;;;;;;;;;6236231;23;20576;-67
2023/09/20 00:09:38;;;;;;;7.10;2.20;;;;;;;;;;6237430;23;20580;-68
2023/09/20 00:12:07;;;;;;;2.43;1.80;;;;;;;;;;6237218;23;20619;-68
2023/09/20 00:14:37;;;;;;;2.40;2.20;;;;;;;;;;6239753;23;20563;-67
2023/09/20 00:17:05;;;;;;;3.73;2.10;;;;;;;;;;6240924;23;20552;-67
2023/09/20 00:19:34;;;;;;;1.73;1.63;;;;;;;;;;6215862;23;20552;-67
2023/09/20 00:22:02;;;;;;;2.03;1.80;;;;;;;;;;6241302;23;20556;-67
2023/09/20 00:24:33;;;;;;;1.80;1.70;;;;;;;;;;6215545;23;20580;-67
2023/09/20 00:27:01;;;;;;;3.93;1.67;;;;;;;;;;6241100;23;20544;-68
2023/09/20 00:29:29;;;;;;;1.87;1.50;;;;;;;;;;6240996;23;20556;-67
2023/09/20 00:31:59;;;;;;;1.87;1.73;;;;;;;;;;6239544;22;20635;-85
2023/09/20 00:34:28;;;;;;;2.37;2.10;;;;;;;;;;6264183;22;20565;-84
2023/09/20 00:36:57;;;;;;;1.93;1.83;;;;;;;;;;6237902;22;20582;-87
2023/09/20 00:39:25;;;;;;;2.30;2.00;;;;;;;;;;6264095;23;20545;-88
2023/09/20 00:41:55;;;;;;;3.67;2.17;;;;;;;;;;6212362;23;20575;-84
2023/09/20 00:44:25;;;;;;;3.00;1.97;;;;;;;;;;6265790;22;20571;-84
2023/09/20 00:46:54;;;;;;;2.03;1.93;;;;;;;;;;6265638;23;20585;-83
2023/09/20 00:49:25;;;;;;;3.20;1.73;;;;;;;;;;6265931;22;20567;-85
2023/09/20 00:51:55;;;;;;;2.10;2.00;;;;;;;;;;6215553;23;20598;-84
2023/09/20 00:54:24;;;;;;;4.60;2.07;;;;;;;;;;6214621;23;20761;-83
2023/09/20 00:56:52;;;;;;;2.93;1.87;;;;;;;;;;6240105;22;20582;-83
2023/09/20 00:59:21;;;;;;;2.30;2.10;;;;;;;;;;6240840;22;20575;-84
2023/09/20 01:01:50;;;;;;;2.67;2.47;;;;;;;;;;6259175;23;20945;-85
2023/09/20 01:04:18;;;;;;;2.00;1.90;;;;;;;;;;6253671;22;20659;-86
2023/09/20 01:06:51;;;;;;;1.70;1.60;;;;;;;;;;6254691;23;20594;-85
2023/09/20 01:09:22;;;;;;;2.33;2.13;;;;;;;;;;6226709;23;20736;-86
2023/09/20 01:11:51;;;;;;;4.53;1.87;;;;;;;;;;6250979;23;20626;-86
2023/09/20 01:14:20;;;;;;;2.37;2.07;;;;;;;;;;6252370;23;20599;-85
2023/09/20 01:16:48;;;;;;;2.23;2.07;;;;;;;;;;6251939;23;20619;-85
2023/09/20 01:19:17;;;;;;;3.63;2.20;;;;;;;;;;6226781;23;20589;-85
2023/09/20 01:21:47;;;;;;;2.80;1.90;;;;;;;;;;6255812;23;20551;-86
2023/09/20 01:24:17;;;;;;;3.07;2.27;;;;;;;;;;6254231;22;20563;-86
2023/09/20 01:26:46;;;;;;;2.27;2.17;;;;;;;;;;6228196;22;21075;-86
2023/09/20 01:29:14;;;;;;;2.37;2.27;;;;;;;;;;6203142;23;20602;-86
2023/09/20 01:31:43;;;;;;;2.50;2.10;;;;;;;;;;6254404;22;20673;-86
2023/09/20 01:34:11;;;;;;;2.50;2.30;;;;;;;;;;6252624;23;20539;-86
2023/09/20 01:36:40;;;;;;;4.83;1.97;;;;;;;;;;6228453;22;20599;-86
2023/09/20 01:39:12;;;;;;;2.13;2.03;;;;;;;;;;6255827;23;21102;-85
2023/09/20 01:41:40;;;;;;;2.40;2.30;;;;;;;;;;6255519;22;20562;-86
2023/09/20 01:44:09;;;;;;;2.73;1.93;;;;;;;;;;6228308;23;20602;-86
2023/09/20 01:46:37;;;;;;;3.50;2.10;;;;;;;;;;6254832;22;20587;-86
2023/09/20 01:49:06;;;;;;;4.10;2.40;;;;;;;;;;6227987;23;20676;-85
2023/09/20 01:51:34;;;;;;;4.00;2.23;;;;;;;;;;6254478;22;20603;-86
2023/09/20 01:54:03;;;;;;;2.80;2.47;;;;;;;;;;6252993;23;20599;-86
2023/09/20 01:56:33;;;;;;;6.10;2.80;;;;;;;;;;6253568;23;20591;-86
2023/09/20 01:59:02;;;;;;;2.20;2.00;;;;;;;;;;6252528;23;20587;-86
2023/09/20 02:01:30;;;;;;;2.70;1.83;;;;;;;;;;6226647;23;20587;-86
2023/09/20 02:03:59;;;;;;;2.70;2.07;;;;;;;;;;6250716;22;20649;-86
2023/09/20 02:06:27;;;;;;;3.17;2.03;;;;;;;;;;6226772;23;20582;-85
2023/09/20 02:08:55;;;;;;;2.70;2.13;;;;;;;;;;6253208;23;20609;-87
2023/09/20 02:11:24;;;;;;;4.33;2.50;;;;;;;;;;6226737;22;20642;-86
2023/09/20 02:13:54;;;;;;;2.40;2.23;;;;;;;;;;6251505;23;20660;-86
2023/09/20 02:16:22;;;;;;;5.47;3.03;;;;;;;;;;6252566;23;20603;-86
2023/09/20 02:18:52;;;;;;;2.53;2.03;;;;;;;;;;6252561;22;20635;-86
2023/09/20 02:21:21;;;;;;;2.60;2.20;;;;;;;;;;6253872;23;20571;-86
2023/09/20 02:23:51;;;;;;;2.47;2.30;;;;;;;;;;6252989;22;20973;-85
2023/09/20 02:26:20;;;;;;;3.30;2.47;;;;;;;;;;6253241;23;20574;-86
2023/09/20 02:28:48;;;;;;;2.20;2.00;;;;;;;;;;6227902;23;20607;-85
2023/09/20 02:31:18;;;;;;;2.60;2.40;;;;;;;;;;6253042;23;20618;-86
2023/09/20 02:33:47;;;;;;;2.80;2.40;;;;;;;;;;6253075;23;20598;-86
2023/09/20 02:36:16;;;;;;;2.80;2.60;;;;;;;;;;6252377;23;20913;-86
2023/09/20 02:38:48;;;;;;;2.57;2.33;;;;;;;;;;6252307;22;21114;-86
2023/09/20 02:41:16;;;;;;;6.80;2.60;;;;;;;;;;6252172;23;20593;-86
2023/09/20 02:43:45;;;;;;;2.87;2.67;;;;;;;;;;6253093;23;20558;-86
2023/09/20 02:46:14;;;;;;;3.50;2.40;;;;;;;;;;6253216;23;20571;-86
2023/09/20 02:48:44;;;;;;;2.47;2.27;;;;;;;;;;6254591;23;20602;-86
2023/09/20 02:51:12;;;;;;;5.43;2.67;;;;;;;;;;6203011;23;20635;-86
2023/09/20 02:53:41;;;;;;;6.70;3.00;;;;;;;;;;6228970;22;20598;-86
2023/09/20 02:56:09;;;;;;;5.23;2.87;;;;;;;;;;6258419;22;20551;-86
2023/09/20 02:58:37;;;;;;;6.83;3.23;;;;;;;;;;6245467;22;20559;-87
2023/09/20 03:01:09;;;;;;;2.90;2.57;;;;;;;;;;6219759;23;20530;-86
2023/09/20 03:03:37;;;;;;;2.50;2.30;;;;;;;;;;6230816;22;20629;-86
2023/09/20 03:06:11;;;;;;;4.30;2.37;;;;;;;;;;6229363;23;20629;-86
2023/09/20 03:08:44;;;;;;;2.50;2.30;;;;;;;;;;6256036;22;20574;-85
2023/09/20 03:11:21;;;;;;;2.50;2.30;;;;;;;;;;6204069;23;20610;-86
2023/09/20 03:13:50;;;;;;;33.27;3.70;;;;;;;;;;6227823;23;20581;-86
2023/09/20 03:16:20;;;;;;;2.20;2.10;;;;;;;;;;6254891;22;20578;-86
2023/09/20 03:18:50;;;;;;;5.57;2.80;;;;;;;;;;6204841;22;20672;-85
2023/09/20 03:21:20;;;;;;;3.33;2.50;;;;;;;;;;6255788;23;21165;-85
2023/09/20 03:23:48;;;;;;;2.70;2.50;;;;;;;;;;6229033;22;20629;-86
2023/09/20 03:26:18;;;;;;;4.10;2.53;;;;;;;;;;6229121;23;20715;-87
2023/09/20 03:28:48;;;;;;;2.00;1.90;;;;;;;;;;6229960;22;20602;-86
2023/09/20 03:31:17;;;;;;;2.50;2.30;;;;;;;;;;6257773;22;21126;-86
2023/09/20 03:33:45;;;;;;;2.50;2.40;;;;;;;;;;6220591;23;20623;-87
2023/09/20 03:36:21;;;;;;;2.50;2.30;;;;;;;;;;6220470;23;20534;-86
2023/09/20 03:38:57;;;;;;;2.60;2.40;;;;;;;;;;6271547;23;20542;-86
2023/09/20 03:41:26;;;;;;;2.13;2.03;;;;;;;;;;6256188;22;20600;-87
2023/09/20 03:43:56;;;;;;;4.83;3.00;;;;;;;;;;6230541;23;21152;-86
2023/09/20 03:46:25;;;;;;;3.00;2.80;;;;;;;;;;6230251;23;20606;-86
2023/09/20 03:48:53;;;;;;;2.80;2.37;;;;;;;;;;6231522;23;20664;-86
2023/09/20 03:51:23;;;;;;;4.83;2.50;;;;;;;;;;6230171;23;20672;-86
2023/09/20 03:53:52;;;;;;;2.80;2.60;;;;;;;;;;6255498;23;20578;-86
2023/09/20 03:56:24;;;;;;;2.83;2.63;;;;;;;;;;6254521;22;20575;-86
2023/09/20 03:58:53;;;;;;;3.07;2.77;;;;;;;;;;6254662;23;21032;-86
2023/09/20 04:01:22;;;;;;;2.97;2.60;;;;;;;;;;6255044;22;20615;-86
2023/09/20 04:03:51;;;;;;;3.00;2.63;;;;;;;;;;6228595;23;20622;-86
2023/09/20 04:06:20;;;;;;;5.87;2.97;;;;;;;;;;6257145;22;20567;-86
2023/09/20 04:08:50;;;;;;;5.70;3.20;;;;;;;;;;6230849;23;20600;-86
2023/09/20 04:11:18;;;;;;;3.27;2.57;;;;;;;;;;6229740;22;20593;-86
2023/09/20 04:13:52;;;;;;;3.97;2.67;;;;;;;;;;6230571;22;20570;-86
2023/09/20 04:16:21;;;;;;;2.47;2.30;;;;;;;;;;6230818;22;20616;-86
2023/09/20 04:18:53;;;;;;;5.00;2.40;;;;;;;;;;6233741;22;20589;-86
2023/09/20 04:21:24;;;;;;;5.97;3.00;;;;;;;;;;6256618;22;20575;-86
2023/09/20 04:23:55;;;;;;;3.03;2.47;;;;;;;;;;6256422;23;20582;-86
2023/09/20 04:26:24;;;;;;;5.70;2.70;;;;;;;;;;6255142;23;20625;-86
2023/09/20 04:28:55;;;;;;;2.37;2.27;;;;;;;;;;6232113;23;20606;-86
2023/09/20 04:31:28;;;;;;;2.70;2.50;;;;;;;;;;6256870;22;20555;-86
2023/09/20 04:34:02;;;;;;;3.80;2.27;;;;;;;;;;6256731;23;20601;-86
2023/09/20 04:36:32;;;;;;;3.77;2.40;;;;;;;;;;6231442;23;20534;-85
2023/09/20 04:41:57;;;;;;;2.80;2.20;;;;;;;;;;6265102;22;20646;-67
2023/09/20 04:44:26;;;;;;;2.33;2.13;;;;;;;;;;6272843;22;20554;-67
2023/09/20 04:46:57;;;;;;;2.37;2.17;;;;;;;;;;6272487;22;20638;-67
2023/09/20 04:49:26;;;;;;;3.73;2.67;;;;;;;;;;6246780;22;20550;-67
2023/09/20 04:51:54;;;;;;;7.70;2.90;;;;;;;;;;6271631;23;20587;-67
2023/09/20 04:54:23;;;;;;;4.87;2.80;;;;;;;;;;6272164;22;20563;-68
2023/09/20 04:56:51;;;;;;;3.40;2.57;;;;;;;;;;6271051;23;20558;-67
2023/09/20 04:59:22;;;;;;;2.97;2.73;;;;;;;;;;6246292;22;20563;-67
2023/09/20 05:01:51;;;;;;;2.67;2.47;;;;;;;;;;6246105;23;20527;-68
2023/09/20 05:04:20;;;;;;;2.90;2.70;;;;;;;;;;6270571;22;20562;-66
2023/09/20 05:06:49;;;;;;;3.63;2.70;;;;;;;;;;6244827;23;20577;-66
2023/09/20 05:09:18;;;;;;;3.70;2.60;;;;;;;;;;6270791;22;20570;-67
2023/09/20 05:11:46;;;;;;;6.27;2.70;;;;;;;;;;6258163;22;20624;-86
2023/09/20 05:14:16;;;;;;;2.53;2.33;;;;;;;;;;6236192;22;20622;-88
2023/09/20 05:16:47;;;;;;;2.93;2.70;;;;;;;;;;6228290;22;20640;-67
2023/09/20 05:19:16;;;;;;;4.53;3.23;;;;;;;;;;6190872;23;20540;-67
2023/09/20 05:21:45;;;;;;;3.97;3.00;;;;;;;;;;6216235;23;21041;-67
2023/09/20 05:24:13;;;;;;;3.00;2.70;;;;;;;;;;6215591;23;20575;-66
2023/09/20 05:26:42;;;;;;;5.37;3.00;;;;;;;;;;6242269;23;20536;-66
2023/09/20 05:29:10;;;;;;;4.70;3.20;;;;;;;;;;6215611;23;20556;-66
2023/09/20 05:31:38;;;;;;;4.47;2.50;;;;;;;;;;6241730;23;20555;-66
2023/09/20 05:34:08;;;;;;;6.67;2.83;;;;;;;;;;6242130;23;20608;-66
2023/09/20 05:36:37;;;;;;;2.87;2.33;;;;;;;;;;6241727;23;20591;-66
2023/09/20 05:39:06;;;;;;;2.40;2.20;;;;;;;;;;6240396;23;20560;-66
2023/09/20 05:41:36;;;;;;;3.03;2.20;;;;;;;;;;6240972;23;20560;-67
2023/09/20 05:44:04;;;;;;;3.23;2.30;;;;;;;;;;6240498;23;20546;-66
2023/09/20 05:46:32;;;;;;;5.90;2.90;;;;;;;;;;6240785;23;20568;-67
2023/09/20 05:49:01;;;;;;;2.30;2.10;;;;;;;;;;6240292;23;20877;-67
2023/09/20 05:51:30;;;;;;;2.67;2.50;;;;;;;;;;6188407;23;20594;-67
2023/09/20 05:53:58;;;;;;;2.97;2.35;;;;;;;;;;6226202;23;20734;-69
2023/09/20 05:56:27;;;;;;;6.67;2.40;;;;;;;;;;6225019;23;20240;-68
2023/09/20 05:58:55;;;;;;;2.40;2.20;;;;;;;;;;6224382;23;20646;-67
2023/09/20 06:01:23;;;;;;;3.00;2.60;;;;;;;;;;6231055;23;20608;-66
2023/09/20 06:03:56;;;;;;;2.27;2.03;;;;;;;;;;6236060;23;20567;-67
2023/09/20 06:06:24;;;;;;;6.33;3.00;;;;;;;;;;6237986;23;20559;-66
2023/09/20 06:08:54;;;;;;;2.40;2.13;;;;;;;;;;6233997;23;20575;-67
2023/09/20 06:11:23;;;;;;;4.40;2.80;;;;;;;;;;6235652;23;20979;-66
2023/09/20 06:13:51;;;;;;;3.77;2.60;;;;;;;;;;6239646;23;20616;-67
2023/09/20 06:16:20;;;;;;;2.93;2.33;;;;;;;;;;6241983;23;20571;-67
2023/09/20 06:18:49;;;;;;;3.70;2.70;;;;;;;;;;6241259;23;20586;-66
2023/09/20 06:21:17;;;;;;;3.50;2.67;;;;;;;;;;6241647;23;20626;-67
2023/09/20 06:23:46;;;;;;;5.10;2.53;;;;;;;;;;6215867;23;20583;-67
2023/09/20 06:26:15;;;;;;;6.00;2.50;;;;;;;;;;6241455;23;20555;-67
2023/09/20 06:28:44;;;;;;;2.93;2.50;;;;;;;;;;6212365;23;20595;-67
2023/09/20 06:31:15;;;;;;;2.93;2.10;;;;;;;;;;6239252;23;20560;-67
2023/09/20 06:33:46;;;;;;;2.60;2.40;;;;;;;;;;6236291;23;20611;-67
2023/09/20 06:36:18;;;;;;;3.53;2.40;;;;;;;;;;6232015;23;20536;-67
2023/09/20 06:38:46;;;;;;;2.73;2.53;;;;;;;;;;6235542;23;20670;-67
2023/09/20 06:41:16;;;;;;;3.00;2.80;;;;;;;;;;6237438;23;20563;-67
2023/09/20 06:43:44;;;;;;;4.33;2.17;;;;;;;;;;6228447;23;20551;-71
2023/09/20 06:46:13;;;;;;;2.40;2.30;;;;;;;;;;6211424;23;20583;-71
2023/09/20 06:48:41;;;;;;;2.57;2.30;;;;;;;;;;6211445;23;20654;-72
2023/09/20 06:51:09;;;;;;;3.20;2.87;;;;;;;;;;6212194;23;20662;-71
2023/09/20 06:53:38;;;;;;;6.20;3.03;;;;;;;;;;6186211;23;20699;-71
2023/09/20 06:56:06;;;;;;;4.10;2.40;;;;;;;;;;6212962;23;20655;-71
2023/09/20 06:58:38;;;;;;;4.70;2.93;;;;;;;;;;6187989;23;20975;-70
2023/09/20 07:01:07;;;;;;;3.10;2.77;;;;;;;;;;6188041;23;21143;-71
2023/09/20 07:03:35;;;;;;;3.20;2.33;;;;;;;;;;6214337;23;21348;-72
2023/09/20 07:06:05;;;;;;;2.53;2.33;;;;;;;;;;6225594;23;20579;-68
2023/09/20 07:08:34;;;;;;;4.40;2.67;;;;;;;;;;6228959;23;20905;-68
2023/09/20 07:11:04;;;;;;;2.90;2.13;;;;;;;;;;6216389;23;20652;-69
2023/09/20 07:13:33;;;;;;;3.13;2.90;;;;;;;;;;6212710;23;20992;-71
2023/09/20 07:16:05;;;;;;;5.70;2.53;;;;;;;;;;6212752;23;21024;-69
2023/09/20 07:18:33;;;;;;;4.73;2.60;;;;;;;;;;6237989;23;20709;-71
2023/09/20 07:21:02;;;;;;;3.30;2.47;;;;;;;;;;6243455;23;20649;-69
2023/09/20 07:23:30;;;;;;;3.83;2.47;;;;;;;;;;6242740;23;20654;-70
2023/09/20 07:25:59;;;;;;;3.43;2.20;;;;;;;;;;6214390;23;20662;-70
2023/09/20 07:28:27;;;;;;;3.40;2.30;;;;;;;;;;6215241;23;20667;-68
2023/09/20 07:30:55;;;;;;;3.10;2.57;;;;;;;;;;6241707;23;20662;-69
2023/09/20 07:33:31;;;;;;;3.53;2.83;;;;;;;;;;6242649;23;20717;-70
2023/09/20 07:36:00;;;;;;;2.90;2.67;;;;;;;;;;6242527;23;20946;-71
2023/09/20 07:38:29;;;;;;;5.00;2.47;;;;;;;;;;6255099;23;20610;-68
2023/09/20 07:41:09;;;;;;;3.63;2.70;;;;;;;;;;6266437;23;20589;-68
2023/09/20 07:43:38;;;;;;;3.03;2.83;;;;;;;;;;6270221;23;20534;-68
2023/09/20 07:46:07;;;;;;;3.30;2.60;;;;;;;;;;6270160;22;20559;-69
2023/09/20 07:48:44;;;;;;;2.80;2.20;;;;;;;;;;6270476;22;20575;-69
2023/09/20 07:51:13;;;;;;;3.30;2.97;;;;;;;;;;6266996;23;20535;-68
2023/09/20 07:53:42;;;;;;;3.27;2.40;;;;;;;;;;6268312;23;20610;-68
2023/09/20 07:56:11;;;;;;;2.50;2.30;;;;;;;;;;6269305;23;20555;-68
2023/09/20 07:58:40;;;;;;;5.10;2.70;;;;;;;;;;6270204;22;20555;-68
2023/09/20 08:01:10;;;;;;;2.63;2.43;;;;;;;;;;6270574;22;20586;-69
2023/09/20 08:03:46;;;;;;;3.07;2.40;;;;;;;;;;6222706;22;20639;-85
2023/09/20 08:06:14;;;;;;;5.90;2.73;;;;;;;;;;6247277;22;20651;-66
2023/09/20 08:08:42;;;;;;;2.73;2.53;;;;;;;;;;6298278;22;20592;-68
2023/09/20 08:11:11;;;;;;;3.10;2.90;;;;;;;;;;6271799;22;20569;-68
2023/09/20 08:13:39;;;;;;;4.17;3.10;;;;;;;;;;6237075;23;20614;-69
2023/09/20 08:16:10;;;;;;;5.60;2.50;;;;;;;;;;6239094;23;20571;-67
2023/09/20 08:21:26;;;;;;;4.10;3.00;;;;;;;;;;6267882;23;20531;-67
2023/09/20 09:00:19;;;;;;;4.53;4.23;;;;;;;;;;6267453;23;20542;-67
2023/09/20 09:02:49;;;;;;;5.23;4.90;;;;;;;;;;6269352;22;20527;-68
2023/09/20 09:05:20;;;;;;;4.50;4.10;;;;;;;;;;6267927;23;20587;-68
2023/09/20 09:07:48;;;;;;;4.70;4.40;;;;;;;;;;6270810;22;20542;-68
2023/09/20 09:10:18;;;;;;;9.13;5.60;;;;;;;;;;6271563;22;20578;-68
2023/09/20 09:12:46;;;;;;;35.43;8.60;;;;;;;;;;6252670;22;20645;-71
2023/09/20 09:15:15;;;;;;;16.97;5.70;;;;;;;;;;6242614;23;20701;-71
2023/09/20 09:17:44;;;;;;;20.23;7.20;;;;;;;;;;6246706;23;20725;-71
2023/09/20 09:20:13;;;;;;;17.20;6.67;;;;;;;;;;6243600;23;20715;-71
2023/09/20 09:22:42;;;;;;;6.40;5.90;;;;;;;;;;6243031;23;20653;-70
2023/09/20 09:25:12;;;;;;;5.87;5.50;;;;;;;;;;6219884;23;20658;-70
2023/09/20 09:27:42;;;;;;;6.17;5.70;;;;;;;;;;6243252;23;21252;-68
2023/09/20 09:30:11;;;;;;;5.90;5.37;;;;;;;;;;6244359;23;20676;-69
2023/09/20 09:32:41;;;;;;;5.40;5.00;;;;;;;;;;6216025;23;20665;-68
2023/09/20 09:35:12;;;;;;;7.23;4.83;;;;;;;;;;6246877;23;21248;-69
2023/09/20 09:37:40;;;;;;;6.27;5.80;;;;;;;;;;6253037;23;20597;-66
2023/09/20 09:40:09;;;;;;;5.50;5.10;;;;;;;;;;6243477;23;21197;-69
2023/09/20 09:42:39;;;;;;;5.67;5.37;;;;;;;;;;6243166;23;20681;-69
2023/09/20 09:45:09;;;;;;;5.50;5.30;;;;;;;;;;6228815;23;20611;-67
2023/09/20 09:47:38;;;;;;;5.57;5.10;;;;;;;;;;6250416;23;20563;-67
2023/09/20 09:50:07;;;;;;;5.97;5.57;;;;;;;;;;6225080;23;21131;-68
2023/09/20 09:52:38;;;;;;;5.77;5.27;;;;;;;;;;6224407;23;20667;-67
2023/09/20 09:55:07;;;;;;;5.83;5.30;;;;;;;;;;6251957;23;20638;-67
2023/09/20 09:57:36;;;;;;;5.80;5.50;;;;;;;;;;6224417;23;20629;-67
2023/09/20 10:00:10;;;;;;;5.80;5.50;;;;;;;;;;6252343;23;20606;-67
2023/09/20 10:02:43;;;;;;;7.13;6.37;;;;;;;;;;6249065;23;20622;-68
2023/09/20 10:05:14;;;;;;;6.47;6.10;;;;;;;;;;6249930;23;20631;-67
2023/09/20 10:07:44;;;;;;;6.10;5.90;;;;;;;;;;6250748;23;20570;-67
2023/09/20 10:10:13;;;;;;;6.50;6.10;;;;;;;;;;6253602;23;20614;-68
2023/09/20 10:12:44;;;;;;;8.50;5.93;;;;;;;;;;6251855;22;20680;-68
2023/09/20 10:15:14;;;;;;;6.67;6.27;;;;;;;;;;6252742;23;20619;-67
2023/09/20 10:17:52;;;;;;;6.50;6.20;;;;;;;;;;6202310;23;20554;-67
2023/09/20 10:20:20;;;;;;;6.73;6.23;;;;;;;;;;6252847;23;20574;-67
2023/09/20 10:22:49;;;;;;;6.83;6.30;;;;;;;;;;6253082;23;20602;-67
2023/09/20 10:25:31;;;;;;;8.03;7.43;;;;;;;;;;6252147;23;20598;-67
2023/09/20 10:27:59;;;;;;;6.90;6.50;;;;;;;;;;6252965;23;20624;-67
2023/09/20 10:30:28;;;;;;;7.30;6.90;;;;;;;;;;6253727;23;20599;-67
2023/09/20 10:33:02;;;;;;;8.87;7.63;;;;;;;;;;6252894;23;20598;-67
2023/09/20 10:35:33;;;;;;;7.40;7.00;;;;;;;;;;6253091;23;20610;-67
2023/09/20 10:38:06;;;;;;;7.00;6.70;;;;;;;;;;6225531;23;20562;-67
2023/09/20 10:40:59;;;;;;;8.50;8.00;;;;;;;;;;6226087;23;20562;-67
2023/09/20 10:43:42;;;;;;;11.73;7.83;;;;;;;;;;6250907;23;20589;-67
2023/09/20 10:46:11;;;;;;;7.53;7.13;;;;;;;;;;6251785;23;20575;-67
2023/09/20 10:48:44;;;;;;;7.80;7.50;;;;;;;;;;6251233;23;20594;-67
2023/09/20 10:51:12;;;;;;;8.30;8.00;;;;;;;;;;6252673;23;21117;-67
2023/09/20 10:53:57;;;;;;;8.00;7.60;;;;;;;;;;6249484;23;20653;-68
2023/09/20 10:56:45;;;;;;;8.60;8.20;;;;;;;;;;6248251;23;20655;-68
2023/09/20 10:59:17;;;;;;;9.53;8.90;;;;;;;;;;6248040;23;20550;-67
2023/09/20 11:01:50;;;;;;;9.73;9.10;;;;;;;;;;6250728;23;20587;-68
2023/09/20 11:04:21;;;;;;;11.40;11.00;;;;;;;;;;6248244;23;20570;-67
2023/09/20 11:06:49;;;;;;;11.30;10.90;;;;;;;;;;6249774;23;20622;-67
2023/09/20 11:09:17;;;;;;;12.40;11.80;;;;;;;;;;6249192;23;20597;-67
2023/09/20 11:11:46;;;;;;;13.20;12.50;;;;;;;;;;6249037;22;20630;-68
2023/09/20 11:14:14;;;;;;;12.43;11.93;;;;;;;;;;6248337;23;20625;-68
2023/09/20 11:16:43;;;;;;;12.80;12.30;;;;;;;;;;6247782;23;20951;-67
2023/09/20 11:19:12;;;;;;;13.27;12.70;;;;;;;;;;6246476;23;20634;-67
2023/09/20 11:21:42;;;;;;;14.30;13.30;;;;;;;;;;6220569;23;20702;-69
2023/09/20 11:24:11;;;;;;;13.87;12.97;;;;;;;;;;6221348;23;20616;-68
2023/09/20 11:26:45;;;;;;;13.40;12.90;;;;;;;;;;6249436;23;20587;-67
2023/09/20 11:29:13;;;;;;;13.60;13.10;;;;;;;;;;6247753;23;20617;-67
2023/09/20 11:31:45;;;;;;;13.57;12.97;;;;;;;;;;6248805;23;20602;-66
2023/09/20 11:34:13;;;;;;;14.00;13.50;;;;;;;;;;6246380;23;20630;-67
2023/09/20 11:36:44;;;;;;;13.97;13.40;;;;;;;;;;6247430;23;20694;-68
2023/09/20 11:39:14;;;;;;;14.40;13.80;;;;;;;;;;6247661;23;20626;-68
2023/09/20 11:41:44;;;;;;;14.37;13.60;;;;;;;;;;6252976;23;20613;-66
2023/09/20 11:44:12;;;;;;;14.13;13.53;;;;;;;;;;6242548;23;20657;-67
2023/09/20 11:46:41;;;;;;;14.10;13.50;;;;;;;;;;6241253;23;20678;-67
2023/09/20 11:49:13;;;;;;;13.63;12.93;;;;;;;;;;6242468;23;20960;-66
2023/09/20 11:51:43;;;;;;;13.90;13.30;;;;;;;;;;6241359;23;20547;-66
2023/09/20 11:54:13;;;;;;;14.03;13.23;;;;;;;;;;6242668;23;21354;-67
2023/09/20 11:56:41;;;;;;;14.80;13.80;;;;;;;;;;6238189;23;20693;-67
2023/09/20 11:59:11;;;;;;;14.00;13.30;;;;;;;;;;6241372;23;20650;-67
2023/09/20 12:01:40;;;;;;;14.30;13.70;;;;;;;;;;6240296;23;20667;-68
2023/09/20 12:04:08;;;;;;;14.90;14.10;;;;;;;;;;6240758;23;20696;-66
2023/09/20 12:06:37;;;;;;;14.87;14.17;;;;;;;;;;6240600;23;20689;-66
2023/09/20 12:09:06;;;;;;;14.83;14.10;;;;;;;;;;6242010;23;20654;-66
2023/09/20 12:11:35;;;;;;;15.37;14.57;;;;;;;;;;6241153;22;20705;-67
2023/09/20 12:14:04;;;;;;;14.40;13.80;;;;;;;;;;6214621;23;20653;-66
2023/09/20 12:16:32;;;;;;;14.37;13.67;;;;;;;;;;6241497;23;20681;-67
2023/09/20 12:19:00;;;;;;;14.53;13.83;;;;;;;;;;6242035;23;20976;-67
2023/09/20 12:21:29;;;;;;;14.27;13.60;;;;;;;;;;6241280;23;20674;-66
2023/09/20 12:23:58;;;;;;;14.87;14.10;;;;;;;;;;6241962;23;20646;-66
2023/09/20 12:26:26;;;;;;;14.90;14.20;;;;;;;;;;6241870;23;20661;-67
2023/09/20 12:28:56;;;;;;;14.70;14.10;;;;;;;;;;6241191;23;20955;-67
2023/09/20 12:31:25;;;;;;;14.93;14.30;;;;;;;;;;6242085;23;20678;-67
2023/09/20 12:33:53;;;;;;;14.60;13.90;;;;;;;;;;6241642;23;20661;-67
2023/09/20 12:36:23;;;;;;;14.70;14.10;;;;;;;;;;6241860;23;20693;-66
2023/09/20 12:38:52;;;;;;;14.87;14.17;;;;;;;;;;6242806;23;20626;-66
2023/09/20 12:41:20;;;;;;;15.97;15.00;;;;;;;;;;6244644;23;20666;-67
2023/09/20 12:43:49;;;;;;;15.07;14.37;;;;;;;;;;6243341;23;20578;-66
2023/09/20 12:46:19;;;;;;;18.90;16.27;;;;;;;;;;6216089;23;20649;-66
2023/09/20 12:48:48;;;;;;;15.10;14.40;;;;;;;;;;6217435;23;20649;-66
2023/09/20 12:51:16;;;;;;;16.20;15.30;;;;;;;;;;6244878;23;21272;-66
2023/09/20 12:53:44;;;;;;;15.23;14.53;;;;;;;;;;6243961;23;21134;-65
2023/09/20 12:56:14;;;;;;;17.20;15.70;;;;;;;;;;6244168;23;20710;-65
2023/09/20 12:58:42;;;;;;;15.37;14.67;;;;;;;;;;6244772;23;20666;-65
2023/09/20 13:01:11;;;;;;;15.33;14.63;;;;;;;;;;6243985;23;20687;-65
2023/09/20 13:03:41;;;;;;;15.87;15.00;;;;;;;;;;6243853;23;21221;-65
2023/09/20 13:06:14;;;;;;;16.20;15.30;;;;;;;;;;6241483;23;20770;-66
2023/09/20 13:08:42;;;;;;;15.27;14.57;;;;;;;;;;6244314;23;21252;-65
2023/09/20 13:11:11;;;;;;;16.07;15.17;;;;;;;;;;6243290;22;21241;-65
2023/09/20 13:13:40;;;;;;;15.70;14.90;;;;;;;;;;6244370;23;20658;-65
2023/09/20 13:16:10;;;;;;;15.30;14.60;;;;;;;;;;6244895;23;20701;-65
2023/09/20 13:18:38;;;;;;;15.67;14.50;;;;;;;;;;6244594;23;20657;-65
2023/09/20 13:21:08;;;;;;;17.37;15.67;;;;;;;;;;6244666;23;20665;-65
2023/09/20 13:23:36;;;;;;;16.10;15.40;;;;;;;;;;6244301;23;20661;-65
2023/09/20 13:26:04;;;;;;;16.60;15.80;;;;;;;;;;6244192;23;20693;-65
2023/09/20 13:28:33;;;;;;;16.10;15.40;;;;;;;;;;6244177;23;20649;-65
2023/09/20 13:31:02;;;;;;;15.30;14.60;;;;;;;;;;6243541;23;20653;-64
2023/09/20 13:33:31;;;;;;;14.90;14.20;;;;;;;;;;6245897;23;20665;-65
2023/09/20 13:35:59;;;;;;;15.27;14.50;;;;;;;;;;6217004;23;20713;-65
2023/09/20 13:38:29;;;;;;;15.70;15.00;;;;;;;;;;6218103;23;20657;-65
2023/09/20 13:40:57;;;;;;;15.73;14.90;;;;;;;;;;6217190;23;20634;-65
2023/09/20 13:43:25;;;;;;;15.90;15.10;;;;;;;;;;6245148;23;20661;-66
2023/09/20 13:45:54;;;;;;;15.97;15.17;;;;;;;;;;6244698;23;20725;-65
2023/09/20 13:48:23;;;;;;;15.70;15.00;;;;;;;;;;6244014;23;20970;-65
2023/09/20 13:50:52;;;;;;;15.53;14.73;;;;;;;;;;6244221;23;20658;-65
2023/09/20 13:53:21;;;;;;;15.20;14.60;;;;;;;;;;6244801;23;20634;-65
2023/09/20 13:55:51;;;;;;;15.63;14.90;;;;;;;;;;6244078;23;20717;-65
2023/09/20 13:58:19;;;;;;;15.87;15.17;;;;;;;;;;6244666;23;20693;-65
2023/09/20 14:00:48;;;;;;;16.80;15.90;;;;;;;;;;6243597;23;20666;-65
2023/09/20 14:03:16;;;;;;;15.80;15.10;;;;;;;;;;6242494;23;20661;-65
2023/09/20 14:05:44;;;;;;;15.80;15.17;;;;;;;;;;6242179;23;20710;-65
2023/09/20 14:08:13;;;;;;;16.40;15.70;;;;;;;;;;6217701;23;20646;-64
2023/09/20 14:10:41;;;;;;;16.10;15.40;;;;;;;;;;6243863;23;20646;-66
2023/09/20 14:13:11;;;;;;;16.50;15.70;;;;;;;;;;6243619;22;20682;-66
2023/09/20 14:15:39;;;;;;;16.20;15.50;;;;;;;;;;6243739;23;20670;-65
2023/09/20 14:18:08;;;;;;;15.80;15.10;;;;;;;;;;6242385;23;20670;-65
2023/09/20 14:20:38;;;;;;;15.50;14.90;;;;;;;;;;6242876;23;20578;-65
2023/09/20 14:23:07;;;;;;;16.17;15.37;;;;;;;;;;6244017;23;20990;-65
2023/09/20 14:25:36;;;;;;;16.40;15.60;;;;;;;;;;6244058;23;21205;-65
2023/09/20 14:28:04;;;;;;;16.10;15.50;;;;;;;;;;6244180;23;20661;-65
2023/09/20 14:30:36;;;;;;;16.27;15.43;;;;;;;;;;6244223;23;20659;-65
2023/09/20 14:33:04;;;;;;;16.37;15.57;;;;;;;;;;6244345;23;20626;-65
2023/09/20 14:35:33;;;;;;;16.40;15.60;;;;;;;;;;6243669;23;20717;-65
2023/09/20 14:38:01;;;;;;;16.83;15.93;;;;;;;;;;6243898;23;21288;-65
2023/09/20 14:40:29;;;;;;;16.00;15.30;;;;;;;;;;6243937;23;20674;-65
2023/09/20 14:42:58;;;;;;;16.70;15.50;;;;;;;;;;6244732;23;20958;-66
2023/09/20 14:45:29;;;;;;;15.97;15.27;;;;;;;;;;6243995;23;20669;-66
2023/09/20 14:48:00;;;;;;;17.10;16.20;;;;;;;;;;6218731;23;20670;-67
2023/09/20 14:50:29;;;;;;;16.43;15.73;;;;;;;;;;6243822;23;20618;-66
2023/09/20 14:52:57;;;;;;;16.50;15.60;;;;;;;;;;6243044;23;20706;-66
2023/09/20 14:55:28;;;;;;;16.77;15.97;;;;;;;;;;6243708;23;20666;-67
2023/09/20 14:57:57;;;;;;;16.10;15.40;;;;;;;;;;6243687;23;20670;-66
2023/09/20 15:00:25;;;;;;;16.27;15.53;;;;;;;;;;6242600;23;20721;-66
2023/09/20 15:02:54;;;;;;;16.70;15.80;;;;;;;;;;6243506;23;20661;-65
2023/09/20 15:05:25;;;;;;;16.60;15.80;;;;;;;;;;6241979;23;20689;-65
2023/09/20 15:07:54;;;;;;;15.90;15.17;;;;;;;;;;6243990;23;20646;-65
2023/09/20 15:10:24;;;;;;;16.27;15.47;;;;;;;;;;6242754;23;20673;-65
2023/09/20 15:12:55;;;;;;;15.97;15.20;;;;;;;;;;6244468;22;20689;-65
2023/09/20 15:15:23;;;;;;;16.27;15.60;;;;;;;;;;6243658;23;20622;-65
2023/09/20 15:17:52;;;;;;;16.40;15.70;;;;;;;;;;6244743;23;20706;-64
2023/09/20 15:20:20;;;;;;;16.47;15.70;;;;;;;;;;6242887;23;20716;-65
2023/09/20 15:22:50;;;;;;;16.00;15.30;;;;;;;;;;6243263;23;20658;-64
2023/09/20 15:25:19;;;;;;;16.30;15.50;;;;;;;;;;6242483;23;20677;-65
2023/09/20 15:27:50;;;;;;;15.97;15.17;;;;;;;;;;6239617;23;21554;-66
2023/09/20 15:30:18;;;;;;;16.00;15.30;;;;;;;;;;6241219;23;20990;-65
2023/09/20 15:32:46;;;;;;;15.57;14.87;;;;;;;;;;6243502;23;20682;-64